Hayward, WI

5:42 PM CST on March 01, 2015 (GMT -0600)
Cumberland Municipal | Change Station
CLOSE
Current Station
Airport
Location: Cumberland,
Elevation: 1240 ft
Nearby Weather Stations

Elev 1240 ft 45.51 °N, 91.98 °W | Updated 7 minutes ago

Clear
Clear
21 °F
Feels Like 9 °F
N
13
Wind Variable Wind from West
Gusts 21 mph

Today
High -- | Low -- °F
--% Chance of Precip.
Yesterday
High -- | Low -- °F
Precip. -- in
6:44 AM 5:51 PM
Waxing Gibbous, 88% visible
Pressure 30.16 in
Visibility 10.0 miles
Clouds Scattered Clouds 4800 ft
Scattered Clouds 6000 ft
Scattered Clouds 7500 ft
Windchill 9 °F
Dew Point 9 °F
Humidity 58%
Rainfall 0.00 in
Snow Depth Not available.
UV 0 out of 12
Pollen .10 out of 12
Air Quality Not available.
Flu Activity Not available.
METAR KUBE 012335Z AUTO 28011G18KT 10SM SCT048 SCT060 SCT075 M06/M13 A3016 RMK AO2

More Conditions Fewer Conditions

Pressure 30.16 in
Visibility 10.0 miles
Clouds Scattered Clouds 4800 ft
Scattered Clouds 6000 ft
Scattered Clouds 7500 ft
Windchill 9 °F
Dew Point 9 °F
Humidity 58%
Rainfall 0.00 in
Snow Depth Not available.
UV 0 out of 12
Pollen .10 out of 12
Air Quality Not available.
Flu Activity Not available.
METAR KUBE 012335Z AUTO 28011G18KT 10SM SCT048 SCT060 SCT075 M06/M13 A3016 RMK AO2

More Conditions Fewer Conditions

10-Day Weather Forecast

Almanac

Astronomy

Mar. 01, 2015 Rise Set
Actual Time
Civil Twilight
Nautical Twilight
Astronomical Twilight
Moon
Length of Visible Light
Length of Day
Tomorrow will be .
, % of the Moon is Illuminated

Today's Extremes

State Highs State Lows

Community

WunderPhotos

Upload Photos

1,801,614 photos uploaded!

WunderBlogs® & News

Nearby

Air Quality

  Air Quality AQ Index Pollutant
Not available.

Snow Depth

Station Depth Elevation

Earthquake Activity

City Distance Mag. Time & Date
Minimum magnitude displayed is 2.5.

Coastal Water Temperatures

Place Temperature

Nearby Weather Stations